Time;durP1;ratioP1;P1;durP2;ratioP2;P2;SDS_P1;SDS_P2;PMS_P1;PMS_P2;Temp;Humidity;BMP_temperature;BMP_pressure;BME280_temperature;BME280_humidity;BME280_pressure;Samples;Min_cycle;Max_cycle;Signal;HPM_P1;HPM_P2
2021/01/15 00:01:21;;;;;;;16.27;7.93;;;;;;;0.64;nan;96416.16;4963851;28;20281;-69
2021/01/15 00:03:49;;;;;;;15.40;7.90;;;;;;;0.60;nan;96406.84;4968229;28;20217;-69
2021/01/15 00:06:20;;;;;;;13.75;7.30;;;;;;;0.69;nan;96403.22;4974784;28;20207;-71
2021/01/15 00:08:47;;;;;;;13.10;7.00;;;;;;;0.72;nan;96415.94;4969815;28;20602;-71
2021/01/15 00:11:20;;;;;;;14.35;6.85;;;;;;;0.75;nan;96411.56;4963770;28;20594;-69
2021/01/15 00:13:47;;;;;;;22.90;7.60;;;;;;;0.70;nan;96416.00;4963323;28;20286;-69
2021/01/15 00:16:19;;;;;;;16.58;7.55;;;;;;;0.68;nan;96417.72;4966698;28;20237;-70
2021/01/15 00:18:46;;;;;;;13.25;6.97;;;;;;;0.64;nan;96408.47;4968990;28;20198;-69
2021/01/15 00:21:19;;;;;;;15.18;7.15;;;;;;;0.55;nan;96410.41;4972626;28;20199;-70
2021/01/15 00:23:46;;;;;;;10.95;6.93;;;;;;;0.54;nan;96409.56;4968803;28;20704;-69
2021/01/15 00:26:16;;;;;;;10.98;5.75;;;;;;;0.47;nan;96415.72;4963093;28;20225;-69
2021/01/15 00:28:43;;;;;;;10.70;6.00;;;;;;;0.45;nan;96409.81;4966660;28;20914;-68
2021/01/15 00:31:13;;;;;;;10.25;5.38;;;;;;;0.49;nan;96418.25;4967905;28;20717;-68
2021/01/15 00:33:42;;;;;;;9.90;6.22;;;;;;;0.41;nan;96397.16;4964288;28;20213;-69
2021/01/15 00:36:09;;;;;;;11.35;5.82;;;;;;;0.29;nan;96417.91;4964503;28;20510;-68
2021/01/15 00:38:36;;;;;;;13.50;6.65;;;;;;;0.32;nan;96413.56;4964355;28;20281;-69
2021/01/15 00:41:06;;;;;;;11.85;6.18;;;;;;;0.39;nan;96420.22;4965394;28;20667;-69
2021/01/15 00:43:33;;;;;;;17.70;6.13;;;;;;;0.37;nan;96424.53;4968135;28;20704;-68
2021/01/15 00:46:00;;;;;;;7.97;5.20;;;;;;;0.36;nan;96420.31;4968104;28;20705;-67
2021/01/15 00:48:28;;;;;;;20.05;5.18;;;;;;;0.32;nan;96425.53;4958789;28;20556;-68
2021/01/15 00:50:55;;;;;;;13.30;5.07;;;;;;;0.32;nan;96422.97;4962405;28;20228;-68
2021/01/15 00:53:22;;;;;;;14.68;6.43;;;;;;;0.31;nan;96427.25;4968608;28;20190;-69
2021/01/15 00:55:51;;;;;;;8.25;5.05;;;;;;;0.32;nan;96431.47;4966331;28;20308;-68
2021/01/15 00:58:17;;;;;;;11.55;5.07;;;;;;;0.31;nan;96426.41;4963697;28;20235;-68
2021/01/15 01:00:44;;;;;;;9.57;4.20;;;;;;;0.40;nan;96437.28;4963648;28;20264;-70
2021/01/15 01:03:11;;;;;;;8.95;5.60;;;;;;;0.38;nan;96433.88;4966602;28;20282;-70
2021/01/15 01:05:38;;;;;;;12.68;5.38;;;;;;;0.29;nan;96434.13;4965642;28;20522;-69
2021/01/15 01:08:06;;;;;;;9.77;4.80;;;;;;;0.19;nan;96417.34;4964718;28;20802;-68
2021/01/15 01:10:33;;;;;;;12.38;4.68;;;;;;;0.27;nan;96435.88;4967021;28;20313;-70
2021/01/15 01:13:00;;;;;;;7.85;4.43;;;;;;;0.32;nan;96439.16;4964936;28;20665;-68
2021/01/15 01:15:27;;;;;;;7.40;4.00;;;;;;;0.16;nan;96448.09;4965443;28;20869;-67
2021/01/15 01:17:54;;;;;;;6.93;4.45;;;;;;;0.14;nan;96434.50;4964138;28;20198;-70
2021/01/15 01:20:21;;;;;;;9.45;4.13;;;;;;;0.15;nan;96443.84;4967465;28;20669;-70
2021/01/15 01:22:49;;;;;;;9.65;3.97;;;;;;;0.14;nan;96431.94;4964730;28;20845;-68
2021/01/15 01:25:18;;;;;;;12.32;4.30;;;;;;;0.04;nan;96438.19;4969749;28;20280;-72
2021/01/15 01:27:45;;;;;;;9.30;4.90;;;;;;;0.06;nan;96441.53;4962982;28;20260;-70
2021/01/15 01:30:14;;;;;;;9.40;4.00;;;;;;;0.09;nan;96455.97;4972395;28;20226;-68
2021/01/15 01:32:41;;;;;;;13.10;4.25;;;;;;;0.11;nan;96441.41;4968078;28;20595;-68
2021/01/15 01:35:09;;;;;;;5.78;3.95;;;;;;;0.18;nan;96454.03;4965568;28;20696;-68
2021/01/15 01:37:36;;;;;;;9.25;4.35;;;;;;;0.22;nan;96452.25;4964325;28;20578;-67
2021/01/15 01:40:04;;;;;;;10.90;4.68;;;;;;;0.21;nan;96459.06;4967754;28;20249;-68
2021/01/15 01:42:32;;;;;;;8.77;4.03;;;;;;;0.14;nan;96457.53;4966676;28;20837;-69
2021/01/15 01:44:58;;;;;;;7.35;4.35;;;;;;;0.18;nan;96456.59;4969182;28;20244;-68
2021/01/15 01:47:26;;;;;;;7.70;3.40;;;;;;;0.22;nan;96460.75;4962519;28;20194;-70
2021/01/15 01:49:53;;;;;;;5.85;3.45;;;;;;;0.18;nan;96466.81;4968609;28;20670;-69
2021/01/15 01:52:20;;;;;;;4.63;3.00;;;;;;;0.15;nan;96466.88;4968373;28;20716;-71
2021/01/15 01:54:47;;;;;;;7.15;3.50;;;;;;;0.17;nan;96467.69;4964093;28;20300;-68
2021/01/15 01:57:14;;;;;;;10.02;3.60;;;;;;;0.24;nan;96471.78;4963012;28;20602;-69
2021/01/15 01:59:42;;;;;;;5.95;4.13;;;;;;;0.22;nan;96473.53;4968453;28;20549;-68
2021/01/15 02:02:09;;;;;;;5.53;3.13;;;;;;;0.25;nan;96478.56;4962424;28;20194;-69
2021/01/15 02:04:54;;;;;;;12.90;3.20;;;;;;;0.31;nan;96483.53;4960349;28;20252;-69
2021/01/15 02:07:21;;;;;;;11.35;3.67;;;;;;;0.30;nan;96476.75;4966088;28;20289;-69
2021/01/15 02:09:56;;;;;;;4.50;3.40;;;;;;;0.24;nan;96469.22;4961244;28;20653;-69
2021/01/15 02:12:34;;;;;;;5.07;2.85;;;;;;;0.21;nan;96479.53;4961546;28;20207;-68
2021/01/15 02:15:08;;;;;;;4.82;2.70;;;;;;;0.28;nan;96486.19;4973598;28;20222;-71
2021/01/15 02:17:42;;;;;;;4.93;2.70;;;;;;;0.25;nan;96477.75;4958184;28;20513;-70
2021/01/15 02:20:23;;;;;;;6.50;2.70;;;;;;;0.24;nan;96479.44;4963109;28;20537;-70
2021/01/15 02:23:05;;;;;;;4.15;2.35;;;;;;;0.24;nan;96487.13;4966794;28;20194;-70
2021/01/15 02:26:13;;;;;;;4.32;2.63;;;;;;;0.23;nan;96480.31;4959339;28;20245;-69
2021/01/15 02:29:01;;;;;;;4.18;2.50;;;;;;;0.19;nan;96493.22;4945622;28;20230;-68
2021/01/15 02:31:52;;;;;;;5.75;2.33;;;;;;;0.16;nan;96489.03;4964945;28;20272;-68
2021/01/15 02:34:28;;;;;;;6.20;3.05;;;;;;;0.13;nan;96488.25;4964910;28;20388;-69
2021/01/15 02:37:01;;;;;;;5.47;2.80;;;;;;;0.16;nan;96499.25;4962165;28;20645;-69
2021/01/15 02:39:49;;;;;;;5.75;2.55;;;;;;;0.15;nan;96501.88;4968271;28;20985;-71
2021/01/15 02:42:17;;;;;;;5.38;2.33;;;;;;;0.11;nan;96496.00;4955090;28;20208;-69
2021/01/15 02:44:49;;;;;;;4.47;2.00;;;;;;;0.13;nan;96504.47;4960990;28;20226;-69
2021/01/15 02:47:23;;;;;;;2.30;1.63;;;;;;;0.12;nan;96496.81;4961738;28;20210;-70
2021/01/15 02:49:51;;;;;;;4.40;2.25;;;;;;;0.04;nan;96494.44;4965005;28;20316;-71
2021/01/15 02:52:18;;;;;;;5.03;2.58;;;;;;;0.02;nan;96501.28;4956572;28;20551;-71
2021/01/15 02:54:45;;;;;;;3.63;2.15;;;;;;;-0.02;nan;96499.69;4955640;28;20232;-71
2021/01/15 02:57:11;;;;;;;5.80;2.10;;;;;;;-0.03;nan;96498.03;4962627;28;20215;-71
2021/01/15 02:59:38;;;;;;;3.22;2.22;;;;;;;0.02;nan;96505.59;4963487;28;20573;-70
2021/01/15 03:02:12;;;;;;;5.53;2.10;;;;;;;0.00;nan;96494.56;4962688;28;20285;-69
2021/01/15 03:04:49;;;;;;;4.75;2.05;;;;;;;-0.06;nan;96503.19;4964871;28;20634;-70
2021/01/15 03:07:20;;;;;;;5.55;2.30;;;;;;;-0.01;nan;96506.50;4968850;28;20533;-69
2021/01/15 03:09:48;;;;;;;3.47;2.45;;;;;;;-0.12;nan;96512.72;4967455;28;20230;-69
2021/01/15 03:12:18;;;;;;;2.72;1.73;;;;;;;-0.15;nan;96510.22;4967131;28;20274;-69
2021/01/15 03:14:47;;;;;;;3.85;2.20;;;;;;;-0.16;nan;96510.25;4966828;28;20452;-70
2021/01/15 03:17:22;;;;;;;6.07;2.75;;;;;;;-0.16;nan;96503.41;4967102;28;20617;-71
2021/01/15 03:19:50;;;;;;;4.90;1.90;;;;;;;-0.15;nan;96507.66;4968538;28;20636;-70
2021/01/15 03:22:19;;;;;;;4.50;2.00;;;;;;;-0.16;nan;96500.88;4966534;28;20198;-69
2021/01/15 03:24:52;;;;;;;3.83;2.28;;;;;;;-0.18;nan;96496.66;4966287;28;20576;-69
2021/01/15 03:27:20;;;;;;;8.15;1.95;;;;;;;-0.24;nan;96512.16;4968095;28;20233;-70
2021/01/15 03:29:47;;;;;;;7.32;2.17;;;;;;;-0.23;nan;96513.84;4969494;28;20233;-68
2021/01/15 03:32:15;;;;;;;4.47;2.00;;;;;;;-0.30;nan;96517.41;4966364;28;20214;-69
2021/01/15 03:34:47;;;;;;;5.43;2.20;;;;;;;-0.24;nan;96517.25;4971983;28;20224;-69
2021/01/15 03:37:14;;;;;;;4.00;1.85;;;;;;;-0.24;nan;96519.81;4971015;28;20662;-68
2021/01/15 03:39:41;;;;;;;4.57;2.80;;;;;;;-0.19;nan;96530.78;4966069;28;20311;-69
2021/01/15 03:42:08;;;;;;;2.92;1.90;;;;;;;-0.17;nan;96529.88;4970178;28;20186;-69
2021/01/15 03:44:35;;;;;;;3.45;2.00;;;;;;;-0.19;nan;96530.78;4965576;28;20228;-71
2021/01/15 03:47:02;;;;;;;3.42;2.10;;;;;;;-0.21;nan;96533.38;4967790;28;20210;-69
2021/01/15 03:49:29;;;;;;;3.00;2.05;;;;;;;-0.23;nan;96536.84;4972326;28;20253;-69
2021/01/15 03:51:56;;;;;;;3.38;2.15;;;;;;;-0.23;nan;96544.50;4965107;28;20539;-69
2021/01/15 03:54:23;;;;;;;5.57;2.53;;;;;;;-0.30;nan;96535.28;4962292;28;20321;-70
2021/01/15 03:56:51;;;;;;;2.95;2.03;;;;;;;-0.29;nan;96539.53;4966033;28;20866;-69
2021/01/15 03:59:18;;;;;;;3.35;1.90;;;;;;;-0.24;nan;96545.38;4971838;28;20233;-69
2021/01/15 04:01:45;;;;;;;4.28;1.85;;;;;;;-0.31;nan;96551.50;4964705;28;20198;-69
2021/01/15 04:04:12;;;;;;;1.85;1.50;;;;;;;-0.32;nan;96548.09;4963848;28;20850;-69
2021/01/15 04:06:39;;;;;;;4.47;2.28;;;;;;;-0.32;nan;96552.38;4964338;28;20741;-69
2021/01/15 04:09:06;;;;;;;4.32;2.03;;;;;;;-0.38;nan;96560.16;4965579;28;20249;-69
2021/01/15 04:11:33;;;;;;;2.85;2.13;;;;;;;-0.40;nan;96556.78;4968433;28;20699;-69
2021/01/15 04:14:01;;;;;;;5.03;2.25;;;;;;;-0.45;nan;96554.31;4964193;28;20305;-69
2021/01/15 04:16:27;;;;;;;7.63;2.33;;;;;;;-0.44;nan;96561.09;4972176;28;20721;-69
2021/01/15 04:18:54;;;;;;;4.53;1.85;;;;;;;-0.47;nan;96562.91;4959540;28;20797;-69
2021/01/15 04:21:21;;;;;;;2.78;1.75;;;;;;;-0.63;nan;96541.94;4957787;28;20191;-72
2021/01/15 04:23:48;;;;;;;3.10;2.22;;;;;;;-0.56;nan;96566.47;4963241;28;20289;-69
2021/01/15 04:26:19;;;;;;;3.70;2.72;;;;;;;-0.56;nan;96573.28;4963964;28;20289;-69
2021/01/15 04:28:46;;;;;;;3.25;2.33;;;;;;;-0.59;nan;96575.91;4969889;28;20296;-69
2021/01/15 04:31:16;;;;;;;5.00;2.67;;;;;;;-0.58;nan;96578.47;4964339;28;20608;-68
2021/01/15 04:33:45;;;;;;;6.65;2.72;;;;;;;-0.62;nan;96586.19;4965520;28;20609;-69
2021/01/15 04:36:12;;;;;;;5.63;2.45;;;;;;;-0.67;nan;96588.00;4964760;28;20905;-69
2021/01/15 04:38:40;;;;;;;8.43;2.05;;;;;;;-0.67;nan;96590.56;4967907;28;20205;-69
2021/01/15 04:41:07;;;;;;;4.28;2.65;;;;;;;-0.70;nan;96595.72;4966680;28;20649;-68
2021/01/15 04:43:36;;;;;;;4.00;2.78;;;;;;;-0.80;nan;96594.22;4964762;28;20297;-68
2021/01/15 04:46:04;;;;;;;3.75;2.38;;;;;;;-0.73;nan;96598.34;4963878;28;20671;-69
2021/01/15 04:48:33;;;;;;;5.50;2.60;;;;;;;-0.80;nan;96592.50;4966895;28;20806;-69
2021/01/15 04:51:02;;;;;;;3.78;2.65;;;;;;;-0.84;nan;96603.63;4973679;28;20230;-69
2021/01/15 04:53:35;;;;;;;6.03;2.40;;;;;;;-0.81;nan;96601.00;4965268;28;20445;-69
2021/01/15 04:56:04;;;;;;;3.75;2.45;;;;;;;-0.87;nan;96603.69;4965153;28;20295;-70
2021/01/15 04:58:43;;;;;;;3.45;2.38;;;;;;;-0.91;nan;96601.19;4961009;28;20681;-70
2021/01/15 05:01:15;;;;;;;8.52;2.83;;;;;;;-0.92;nan;96596.97;4971256;28;20833;-69
2021/01/15 05:03:46;;;;;;;8.25;2.38;;;;;;;-0.95;nan;96602.13;4966080;28;20217;-70
2021/01/15 05:06:20;;;;;;;5.55;2.30;;;;;;;-0.91;nan;96603.75;4966578;28;20215;-69
2021/01/15 05:09:00;;;;;;;6.15;3.40;;;;;;;-1.04;nan;96594.66;4968366;28;20320;-69
2021/01/15 05:11:28;;;;;;;3.75;2.47;;;;;;;-0.98;nan;96605.59;4965828;28;20868;-69
2021/01/15 05:13:55;;;;;;;4.82;2.63;;;;;;;-1.00;nan;96614.13;4960736;28;20233;-69
2021/01/15 05:16:23;;;;;;;4.03;2.90;;;;;;;-1.01;nan;96617.56;4968183;28;20715;-68
2021/01/15 05:18:53;;;;;;;5.78;3.25;;;;;;;-0.97;nan;96614.09;4965099;28;20655;-69
2021/01/15 05:21:20;;;;;;;4.40;2.92;;;;;;;-1.01;nan;96620.97;4967092;28;20588;-68
2021/01/15 05:23:47;;;;;;;5.53;2.88;;;;;;;-1.02;nan;96631.19;4968211;28;20254;-72
2021/01/15 05:26:15;;;;;;;8.85;3.40;;;;;;;-1.07;nan;96628.72;4965716;28;20598;-69
2021/01/15 05:28:44;;;;;;;5.75;3.10;;;;;;;-1.17;nan;96636.56;4962188;28;20283;-69
2021/01/15 05:31:11;;;;;;;9.63;3.03;;;;;;;-1.18;nan;96645.91;4962201;28;20894;-69
2021/01/15 05:33:38;;;;;;;3.60;2.70;;;;;;;-1.13;nan;96644.16;4962507;28;20247;-69
2021/01/15 05:36:06;;;;;;;7.32;3.80;;;;;;;-1.17;nan;96646.78;4962964;28;20198;-69
2021/01/15 05:38:33;;;;;;;5.70;2.95;;;;;;;-1.26;nan;96647.75;4963374;28;20209;-69
2021/01/15 05:41:01;;;;;;;3.35;2.60;;;;;;;-1.31;nan;96651.25;4964600;28;20721;-68
2021/01/15 05:43:30;;;;;;;4.55;3.08;;;;;;;-1.28;nan;96659.69;4957602;28;20610;-69
2021/01/15 05:46:06;;;;;;;4.28;2.70;;;;;;;-1.41;nan;96642.06;4960097;28;20291;-69
2021/01/15 05:48:33;;;;;;;6.45;3.15;;;;;;;-1.41;nan;96652.25;4967821;28;20632;-69
2021/01/15 05:51:00;;;;;;;6.18;2.88;;;;;;;-1.49;nan;96660.03;4964872;28;20574;-69
2021/01/15 05:53:40;;;;;;;6.03;3.08;;;;;;;-1.57;nan;96671.19;4965802;28;20316;-69
2021/01/15 05:56:08;;;;;;;7.18;2.90;;;;;;;-1.52;nan;96674.53;4963509;28;20282;-70
2021/01/15 05:58:36;;;;;;;6.93;3.50;;;;;;;-1.49;nan;96674.50;4965112;28;20243;-69
2021/01/15 06:01:08;;;;;;;5.00;2.85;;;;;;;-1.49;nan;96682.16;4970494;28;20261;-68
2021/01/15 06:03:36;;;;;;;5.30;2.95;;;;;;;-1.48;nan;96683.84;4964333;28;20303;-69
2021/01/15 06:06:04;;;;;;;7.38;3.58;;;;;;;-1.59;nan;96688.22;4950932;28;20798;-68
2021/01/15 06:08:44;;;;;;;4.25;2.90;;;;;;;-1.60;nan;96694.19;4963928;28;20205;-68
2021/01/15 06:11:22;;;;;;;6.00;2.65;;;;;;;-1.66;nan;96696.84;4964944;28;20658;-69
2021/01/15 06:13:49;;;;;;;5.32;3.30;;;;;;;-1.64;nan;96711.25;4966311;28;20239;-68
2021/01/15 06:16:19;;;;;;;6.47;3.25;;;;;;;-1.69;nan;96714.75;4964869;28;20551;-68
2021/01/15 06:18:59;;;;;;;6.82;3.20;;;;;;;-1.74;nan;96714.81;4964655;28;20202;-69
2021/01/15 06:21:33;;;;;;;15.90;3.47;;;;;;;-1.77;nan;96721.66;4965184;28;20514;-69
2021/01/15 06:24:06;;;;;;;3.97;2.75;;;;;;;-1.81;nan;96722.53;4965851;28;20684;-69
2021/01/15 06:26:37;;;;;;;4.90;2.90;;;;;;;-1.80;nan;96726.75;4960319;28;20279;-69
2021/01/15 06:29:09;;;;;;;7.57;3.33;;;;;;;-1.81;nan;96727.63;4956064;28;20561;-71
2021/01/15 06:31:49;;;;;;;6.38;3.20;;;;;;;-1.80;nan;96731.88;4955867;28;20570;-68
2021/01/15 06:34:17;;;;;;;5.95;3.03;;;;;;;-1.85;nan;96733.66;4955682;28;20675;-69
2021/01/15 06:36:52;;;;;;;4.80;3.47;;;;;;;-1.83;nan;96739.56;4962322;28;20293;-69
2021/01/15 06:39:22;;;;;;;7.00;3.78;;;;;;;-1.85;nan;96736.19;4966807;28;20530;-69
2021/01/15 06:42:01;;;;;;;4.57;4.07;;;;;;;-1.84;nan;96748.91;4964304;28;20225;-70
2021/01/15 06:44:31;;;;;;;7.50;3.42;;;;;;;-1.86;nan;96745.53;4963882;28;20750;-69
2021/01/15 06:47:11;;;;;;;6.10;2.78;;;;;;;-1.96;nan;96738.88;4962315;28;20222;-69
2021/01/15 06:49:49;;;;;;;6.20;3.85;;;;;;;-1.90;nan;96760.91;4965618;28;20699;-69
2021/01/15 06:52:26;;;;;;;9.57;2.85;;;;;;;-1.95;nan;96752.44;4971506;28;20596;-69
2021/01/15 06:55:01;;;;;;;6.07;2.88;;;;;;;-1.91;nan;96762.59;4966266;28;20800;-69
2021/01/15 06:57:30;;;;;;;8.15;3.47;;;;;;;-1.91;nan;96761.75;4968850;28;20618;-69
2021/01/15 06:59:59;;;;;;;6.57;3.60;;;;;;;-1.96;nan;96763.50;4958857;28;20800;-69
2021/01/15 07:03:07;;;;;;;11.68;3.85;;;;;;;-1.95;nan;96767.75;4960079;28;20199;-70
2021/01/15 07:05:47;;;;;;;9.60;4.45;;;;;;;-2.04;nan;96755.97;4967872;28;20307;-69
2021/01/15 07:08:14;;;;;;;7.10;3.88;;;;;;;-1.94;nan;96772.84;4965085;28;20252;-70
2021/01/15 07:10:46;;;;;;;7.60;4.05;;;;;;;-1.90;nan;96773.66;4966942;28;20252;-70
2021/01/15 07:13:27;;;;;;;8.52;4.10;;;;;;;-1.84;nan;96783.78;4965840;28;20231;-70
2021/01/15 07:15:55;;;;;;;6.57;3.88;;;;;;;-1.83;nan;96785.47;4965204;28;20532;-69
2021/01/15 07:18:46;;;;;;;9.07;5.13;;;;;;;-1.79;nan;96789.66;4965429;28;20600;-70
2021/01/15 07:21:16;;;;;;;4.45;3.33;;;;;;;-1.86;nan;96790.63;4964777;28;20246;-71
2021/01/15 07:23:53;;;;;;;6.88;3.40;;;;;;;-1.83;nan;96790.56;4964759;28;20593;-70
2021/01/15 07:26:21;;;;;;;12.80;3.90;;;;;;;-1.77;nan;96785.41;4967749;28;20655;-71
2021/01/15 07:28:56;;;;;;;8.02;4.10;;;;;;;-1.68;nan;96790.38;4968007;28;20313;-72
2021/01/15 07:31:25;;;;;;;10.73;4.30;;;;;;;-1.72;nan;96804.03;4964609;28;20207;-73
2021/01/15 07:33:56;;;;;;;13.15;4.68;;;;;;;-1.69;nan;96799.72;4964317;28;20195;-71
2021/01/15 07:36:35;;;;;;;6.43;4.00;;;;;;;-1.56;nan;96801.28;4966014;28;20197;-71
2021/01/15 07:39:10;;;;;;;9.57;4.18;;;;;;;-1.58;nan;96802.16;4963924;28;20250;-72
2021/01/15 07:41:41;;;;;;;6.32;4.50;;;;;;;-1.47;nan;96810.53;4965142;28;20716;-71
2021/01/15 07:44:37;;;;;;;10.10;4.80;;;;;;;-1.38;nan;96810.44;4967823;28;20316;-72
2021/01/15 07:47:12;;;;;;;7.95;4.10;;;;;;;-1.37;nan;96807.00;4970949;28;20201;-71
2021/01/15 07:49:44;;;;;;;11.73;4.88;;;;;;;-1.04;nan;96817.63;4965631;28;20221;-71
2021/01/15 07:52:11;;;;;;;10.10;5.30;;;;;;;-0.85;nan;96808.84;4964517;28;20249;-72
2021/01/15 07:55:01;;;;;;;10.93;6.22;;;;;;;-0.48;nan;96819.31;4970483;28;20276;-72
2021/01/15 07:57:30;;;;;;;6.40;4.20;;;;;;;-0.21;nan;96829.13;4967298;28;20304;-71
2021/01/15 08:00:17;;;;;;;9.10;5.05;;;;;;;0.18;nan;96830.13;4956735;28;20250;-74
2021/01/15 08:02:44;;;;;;;9.05;5.47;;;;;;;0.60;nan;96831.84;4962117;28;20641;-71
2021/01/15 08:05:12;;;;;;;11.10;5.40;;;;;;;0.86;nan;96839.00;4966894;28;20264;-71
2021/01/15 08:07:39;;;;;;;9.10;4.72;;;;;;;1.07;nan;96841.97;4964558;28;20700;-72
2021/01/15 08:10:09;;;;;;;9.95;5.90;;;;;;;1.23;nan;96840.78;4969868;28;20744;-71
2021/01/15 08:12:37;;;;;;;9.15;4.75;;;;;;;1.62;nan;96847.53;4966410;28;20276;-72
2021/01/15 08:15:25;;;;;;;10.05;5.35;;;;;;;2.26;nan;96855.38;4963643;28;20326;-72
2021/01/15 08:17:52;;;;;;;7.40;5.38;;;;;;;2.86;nan;96860.59;4967044;28;20609;-70
2021/01/15 08:20:20;;;;;;;7.97;5.30;;;;;;;3.15;nan;96858.88;4965317;28;20227;-71
2021/01/15 08:22:49;;;;;;;7.68;4.90;;;;;;;3.75;nan;96862.16;4965686;28;20673;-71
2021/01/15 08:25:26;;;;;;;11.63;6.05;;;;;;;4.18;nan;96857.31;4969020;28;20756;-71
2021/01/15 08:27:55;;;;;;;7.93;4.85;;;;;;;4.43;nan;96855.63;4963113;28;20619;-71
2021/01/15 08:30:23;;;;;;;8.48;5.03;;;;;;;4.93;nan;96870.16;4957234;28;21199;-72
2021/01/15 08:32:49;;;;;;;10.38;5.80;;;;;;;5.47;nan;96868.97;4965626;28;20511;-70
2021/01/15 08:35:29;;;;;;;11.77;5.63;;;;;;;5.46;nan;96869.06;4965570;28;20221;-70
2021/01/15 08:38:03;;;;;;;13.73;5.72;;;;;;;5.52;nan;96886.91;4964701;28;20672;-71
2021/01/15 08:40:38;;;;;;;10.20;6.00;;;;;;;5.53;nan;96886.00;4963151;28;20257;-72
2021/01/15 08:43:06;;;;;;;11.95;6.05;;;;;;;5.80;nan;96890.13;4963046;28;20641;-71
2021/01/15 08:45:34;;;;;;;72.63;31.42;;;;;;;6.09;nan;96889.81;4966144;28;20303;-71
2021/01/15 08:48:02;;;;;;;7.72;5.22;;;;;;;6.22;nan;96891.03;4963829;28;20715;-71
2021/01/15 08:50:29;;;;;;;10.63;5.20;;;;;;;6.29;nan;96895.03;4969767;28;20213;-72
2021/01/15 08:52:58;;;;;;;10.13;5.03;;;;;;;6.15;nan;96899.91;4963378;28;20249;-71
2021/01/15 08:55:25;;;;;;;7.73;5.40;;;;;;;6.33;nan;96899.19;4964831;28;20753;-71
2021/01/15 08:57:52;;;;;;;10.32;5.78;;;;;;;6.71;nan;96907.03;4965480;28;20480;-71
2021/01/15 09:00:23;;;;;;;11.87;5.03;;;;;;;7.11;nan;96904.44;4966323;28;20895;-71
2021/01/15 09:02:52;;;;;;;11.50;6.77;;;;;;;7.46;nan;96897.69;4967666;28;20824;-72
2021/01/15 09:05:24;;;;;;;10.80;6.10;;;;;;;7.68;nan;96917.41;4958266;28;20816;-72
2021/01/15 09:07:51;;;;;;;9.10;5.40;;;;;;;7.82;nan;96911.56;4956036;28;20445;-72
2021/01/15 09:10:19;;;;;;;10.10;6.50;;;;;;;7.52;nan;96915.56;4964947;28;20983;-73
2021/01/15 09:12:49;;;;;;;9.47;5.53;;;;;;;7.55;nan;96918.00;4960603;28;20497;-72
2021/01/15 09:15:19;;;;;;;9.97;5.93;;;;;;;7.45;nan;96919.34;4970819;28;20869;-72
2021/01/15 09:17:48;;;;;;;7.13;5.23;;;;;;;7.94;nan;96914.44;4964091;28;20836;-72
2021/01/15 09:20:17;;;;;;;12.17;6.60;;;;;;;8.27;nan;96923.25;4962779;28;20559;-72
2021/01/15 09:22:44;;;;;;;14.63;5.20;;;;;;;7.53;nan;96930.19;4962919;28;20486;-71
2021/01/15 09:25:12;;;;;;;12.33;7.27;;;;;;;8.80;nan;96927.53;4961890;28;20631;-71
2021/01/15 09:27:39;;;;;;;10.80;6.17;;;;;;;9.80;nan;96928.34;4963179;28;20481;-71
2021/01/15 09:30:07;;;;;;;10.67;6.63;;;;;;;10.25;nan;96913.69;4964602;28;20886;-71
2021/01/15 09:32:34;;;;;;;9.67;6.07;;;;;;;11.27;nan;96931.13;4961609;28;20544;-71
2021/01/15 09:35:02;;;;;;;10.47;6.50;;;;;;;12.02;nan;96923.91;4962730;28;20477;-72
2021/01/15 09:37:29;;;;;;;12.97;7.03;;;;;;;12.75;nan;96923.50;4961844;28;20653;-72
2021/01/15 09:39:56;;;;;;;10.70;5.93;;;;;;;13.18;nan;96923.22;4965136;28;20465;-72
2021/01/15 09:42:23;;;;;;;13.13;6.43;;;;;;;13.20;nan;96931.78;4965186;28;21021;-72
2021/01/15 09:44:49;;;;;;;12.53;6.73;;;;;;;12.91;nan;96929.41;4967347;28;20840;-71
2021/01/15 09:47:16;;;;;;;9.43;6.70;;;;;;;13.16;nan;96939.94;4964108;28;20489;-72
2021/01/15 09:49:43;;;;;;;8.60;6.07;;;;;;;13.28;nan;96926.03;4964189;28;20987;-73
2021/01/15 09:52:17;;;;;;;15.23;6.93;;;;;;;13.94;nan;96932.72;4965295;28;20497;-73
2021/01/15 09:54:44;;;;;;;14.87;6.97;;;;;;;14.06;nan;96936.25;4961904;28;20944;-72
2021/01/15 09:57:10;;;;;;;12.37;6.40;;;;;;;14.86;nan;96942.63;4964001;28;20540;-73
2021/01/15 09:59:37;;;;;;;10.03;6.30;;;;;;;14.73;nan;96946.25;4960413;28;20500;-73
2021/01/15 10:02:04;;;;;;;10.50;6.43;;;;;;;15.20;nan;96951.44;4967054;28;20535;-72
2021/01/15 10:04:32;;;;;;;11.60;6.90;;;;;;;15.37;nan;96949.28;4964548;28;20483;-72
2021/01/15 10:06:59;;;;;;;10.97;6.67;;;;;;;15.28;nan;96951.72;4961636;28;20489;-72
2021/01/15 10:09:27;;;;;;;11.77;6.60;;;;;;;15.50;nan;96944.78;4963579;28;20800;-72
2021/01/15 10:11:53;;;;;;;68.73;30.80;;;;;;;15.60;nan;96950.16;4961761;28;20891;-72
2021/01/15 10:14:20;;;;;;;16.13;9.63;;;;;;;15.55;nan;96957.56;4964231;28;20945;-72
2021/01/15 10:16:49;;;;;;;11.47;7.63;;;;;;;15.17;nan;96960.38;4963556;28;20463;-73
2021/01/15 10:19:17;;;;;;;9.23;6.40;;;;;;;15.04;nan;96958.78;4963278;28;20478;-72
2021/01/15 10:21:46;;;;;;;12.50;6.37;;;;;;;15.28;nan;96954.34;4966113;28;21053;-72
2021/01/15 10:24:13;;;;;;;10.00;6.53;;;;;;;15.16;nan;96966.56;4963567;28;21049;-72
2021/01/15 10:26:42;;;;;;;8.93;6.50;;;;;;;15.18;nan;96969.91;4964773;28;20784;-73
2021/01/15 10:29:10;;;;;;;14.80;7.30;;;;;;;15.22;nan;96970.53;4966985;28;21023;-72
2021/01/15 10:31:42;;;;;;;12.40;6.40;;;;;;;15.46;nan;96972.19;4968626;28;21111;-72
2021/01/15 10:34:34;;;;;;;12.87;7.30;;;;;;;15.24;nan;96966.03;4966043;28;20797;-73
2021/01/15 10:37:04;;;;;;;10.27;7.50;;;;;;;15.15;nan;96972.78;4966320;28;20842;-73
2021/01/15 10:39:33;;;;;;;14.40;7.37;;;;;;;15.28;nan;96965.69;4960556;28;20473;-72
2021/01/15 10:42:03;;;;;;;14.00;7.13;;;;;;;15.55;nan;96968.03;4965125;28;20486;-72
2021/01/15 10:44:33;;;;;;;11.13;7.40;;;;;;;15.29;nan;96966.50;4965195;28;20580;-72
2021/01/15 10:47:05;;;;;;;13.90;7.87;;;;;;;14.77;nan;96958.19;4973770;28;20772;-73
2021/01/15 10:49:33;;;;;;;21.10;8.83;;;;;;;14.64;nan;96962.63;4956972;28;20479;-72
2021/01/15 10:52:00;;;;;;;14.37;8.20;;;;;;;14.53;nan;96962.56;4963221;28;20919;-72
2021/01/15 10:54:27;;;;;;;11.83;7.10;;;;;;;14.21;nan;96975.31;4959567;28;21017;-72
2021/01/15 10:56:54;;;;;;;8.83;6.30;;;;;;;14.19;nan;96968.50;4964851;28;20826;-72
2021/01/15 10:59:22;;;;;;;12.40;7.50;;;;;;;14.43;nan;96974.63;4970265;28;20472;-72
2021/01/15 11:01:52;;;;;;;14.20;7.87;;;;;;;13.84;nan;96976.16;4964707;28;20807;-72
2021/01/15 11:04:20;;;;;;;13.40;7.63;;;;;;;13.77;nan;96971.44;4964131;28;20988;-72
2021/01/15 11:06:52;;;;;;;11.47;7.50;;;;;;;13.09;nan;96975.25;4962992;28;20561;-72
2021/01/15 11:09:20;;;;;;;11.80;7.50;;;;;;;13.47;nan;96973.53;4954526;28;20908;-72
2021/01/15 11:12:06;;;;;;;14.00;8.70;;;;;;;13.96;nan;96979.72;4964449;28;20856;-71
2021/01/15 11:14:35;;;;;;;10.80;7.53;;;;;;;14.11;nan;96982.13;4963612;28;20572;-73
2021/01/15 11:17:02;;;;;;;12.77;7.90;;;;;;;14.04;nan;96977.41;4962784;28;20478;-72
2021/01/15 11:19:30;;;;;;;11.63;7.70;;;;;;;14.29;nan;96978.25;4957557;28;20496;-72
2021/01/15 11:21:58;;;;;;;11.70;7.73;;;;;;;14.44;nan;96979.78;4960464;28;21003;-74
2021/01/15 11:24:25;;;;;;;13.53;7.40;;;;;;;14.25;nan;96976.78;4963318;28;20960;-74
2021/01/15 11:26:52;;;;;;;15.93;8.17;;;;;;;14.37;nan;96981.16;4961854;28;20536;-74
2021/01/15 11:29:19;;;;;;;13.93;8.03;;;;;;;14.71;nan;96974.34;4967140;28;21282;-74
2021/01/15 11:31:47;;;;;;;17.67;7.53;;;;;;;14.88;nan;96982.66;4964550;28;20532;-74
2021/01/15 11:34:16;;;;;;;13.60;8.27;;;;;;;14.82;nan;96977.03;4963349;28;20553;-74
2021/01/15 11:36:43;;;;;;;16.70;8.27;;;;;;;14.54;nan;96974.72;4967730;28;20957;-74
2021/01/15 11:39:12;;;;;;;13.23;7.80;;;;;;;14.56;nan;96975.44;4966815;28;20969;-73
2021/01/15 11:41:49;;;;;;;14.33;8.00;;;;;;;14.27;nan;96979.28;4965811;28;20441;-74
2021/01/15 11:44:17;;;;;;;12.37;8.13;;;;;;;14.32;nan;96977.19;4965599;28;20467;-74
2021/01/15 11:46:44;;;;;;;15.40;8.20;;;;;;;14.35;nan;96976.97;4963580;28;20543;-74
2021/01/15 11:49:26;;;;;;;10.50;7.10;;;;;;;14.22;nan;96968.31;4969255;28;20801;-74
2021/01/15 11:51:54;;;;;;;9.60;7.20;;;;;;;14.15;nan;96977.50;4964766;28;20464;-74
2021/01/15 11:54:24;;;;;;;14.17;7.70;;;;;;;14.37;nan;96969.84;4961542;28;20538;-74
2021/01/15 11:56:51;;;;;;;11.37;6.73;;;;;;;14.17;nan;96978.22;4966852;28;20457;-74
2021/01/15 11:59:18;;;;;;;12.50;7.77;;;;;;;14.11;nan;96973.41;4965898;28;20458;-73
2021/01/15 12:01:46;;;;;;;10.83;7.20;;;;;;;13.77;nan;96979.28;4968302;28;20824;-74
2021/01/15 12:04:13;;;;;;;19.93;7.30;;;;;;;13.52;nan;96974.91;4962084;28;21286;-74
2021/01/15 12:06:41;;;;;;;10.37;7.40;;;;;;;13.68;nan;96983.41;4964565;28;20983;-74